sensor_id;sensor_type;location;lat;lon;timestamp;P1;durP1;ratioP1;P2;durP2;ratioP2
36191;SDS011;22233;42.708;23.360;2023-04-15T00:01:11;5.80;;;4.43;;
36191;SDS011;22233;42.708;23.360;2023-04-15T00:03:37;8.73;;;4.78;;
36191;SDS011;22233;42.708;23.360;2023-04-15T00:06:02;7.55;;;4.80;;
36191;SDS011;22233;42.708;23.360;2023-04-15T00:08:28;8.38;;;4.97;;
36191;SDS011;22233;42.708;23.360;2023-04-15T00:10:54;9.90;;;5.15;;
36191;SDS011;22233;42.708;23.360;2023-04-15T00:13:19;7.03;;;4.40;;
36191;SDS011;22233;42.708;23.360;2023-04-15T00:15:45;7.60;;;4.30;;
36191;SDS011;22233;42.708;23.360;2023-04-15T00:18:10;7.88;;;5.00;;
36191;SDS011;22233;42.708;23.360;2023-04-15T00:20:35;10.07;;;5.15;;
36191;SDS011;22233;42.708;23.360;2023-04-15T00:23:01;7.53;;;4.13;;
36191;SDS011;22233;42.708;23.360;2023-04-15T00:25:27;9.10;;;4.55;;
36191;SDS011;22233;42.708;23.360;2023-04-15T00:27:53;9.25;;;4.35;;
36191;SDS011;22233;42.708;23.360;2023-04-15T00:30:18;8.90;;;4.32;;
36191;SDS011;22233;42.708;23.360;2023-04-15T00:32:44;6.20;;;3.85;;
36191;SDS011;22233;42.708;23.360;2023-04-15T00:35:10;6.40;;;4.38;;
36191;SDS011;22233;42.708;23.360;2023-04-15T00:37:36;7.97;;;4.13;;
36191;SDS011;22233;42.708;23.360;2023-04-15T00:40:01;6.93;;;3.92;;
36191;SDS011;22233;42.708;23.360;2023-04-15T00:42:30;5.32;;;3.50;;
36191;SDS011;22233;42.708;23.360;2023-04-15T00:44:55;5.63;;;3.40;;
36191;SDS011;22233;42.708;23.360;2023-04-15T00:47:21;5.65;;;3.60;;
36191;SDS011;22233;42.708;23.360;2023-04-15T00:49:47;9.07;;;3.92;;
36191;SDS011;22233;42.708;23.360;2023-04-15T00:52:12;7.85;;;4.30;;
36191;SDS011;22233;42.708;23.360;2023-04-15T00:54:38;8.70;;;4.50;;
36191;SDS011;22233;42.708;23.360;2023-04-15T00:57:04;6.80;;;4.35;;
36191;SDS011;22233;42.708;23.360;2023-04-15T00:59:34;9.43;;;3.40;;
36191;SDS011;22233;42.708;23.360;2023-04-15T01:02:00;6.32;;;3.47;;
36191;SDS011;22233;42.708;23.360;2023-04-15T01:04:25;7.65;;;4.22;;
36191;SDS011;22233;42.708;23.360;2023-04-15T01:06:51;9.50;;;4.93;;
36191;SDS011;22233;42.708;23.360;2023-04-15T01:09:16;7.43;;;4.18;;
36191;SDS011;22233;42.708;23.360;2023-04-15T01:11:42;6.95;;;3.80;;
36191;SDS011;22233;42.708;23.360;2023-04-15T01:14:08;6.60;;;3.97;;
36191;SDS011;22233;42.708;23.360;2023-04-15T01:16:35;8.40;;;4.25;;
36191;SDS011;22233;42.708;23.360;2023-04-15T01:19:04;10.45;;;4.55;;
36191;SDS011;22233;42.708;23.360;2023-04-15T01:21:34;7.22;;;4.47;;
36191;SDS011;22233;42.708;23.360;2023-04-15T01:24:03;10.68;;;4.72;;
36191;SDS011;22233;42.708;23.360;2023-04-15T01:26:33;7.47;;;4.53;;
36191;SDS011;22233;42.708;23.360;2023-04-15T01:28:59;7.10;;;4.40;;
36191;SDS011;22233;42.708;23.360;2023-04-15T01:31:25;9.18;;;3.95;;
36191;SDS011;22233;42.708;23.360;2023-04-15T01:33:51;7.22;;;4.35;;
36191;SDS011;22233;42.708;23.360;2023-04-15T01:36:16;7.78;;;4.18;;
36191;SDS011;22233;42.708;23.360;2023-04-15T01:38:42;8.25;;;4.28;;
36191;SDS011;22233;42.708;23.360;2023-04-15T01:41:07;7.32;;;3.88;;
36191;SDS011;22233;42.708;23.360;2023-04-15T01:43:34;5.90;;;4.07;;
36191;SDS011;22233;42.708;23.360;2023-04-15T01:46:03;8.27;;;4.18;;
36191;SDS011;22233;42.708;23.360;2023-04-15T01:48:29;7.32;;;4.70;;
36191;SDS011;22233;42.708;23.360;2023-04-15T01:50:54;9.82;;;4.68;;
36191;SDS011;22233;42.708;23.360;2023-04-15T01:53:25;5.95;;;3.88;;
36191;SDS011;22233;42.708;23.360;2023-04-15T01:55:51;6.60;;;4.40;;
36191;SDS011;22233;42.708;23.360;2023-04-15T01:58:17;7.43;;;4.65;;
36191;SDS011;22233;42.708;23.360;2023-04-15T02:00:43;6.68;;;3.83;;
36191;SDS011;22233;42.708;23.360;2023-04-15T02:03:08;7.40;;;4.30;;
36191;SDS011;22233;42.708;23.360;2023-04-15T02:05:34;6.95;;;4.20;;
36191;SDS011;22233;42.708;23.360;2023-04-15T02:07:59;7.75;;;4.60;;
36191;SDS011;22233;42.708;23.360;2023-04-15T02:10:25;6.57;;;3.63;;
36191;SDS011;22233;42.708;23.360;2023-04-15T02:12:51;6.90;;;4.07;;
36191;SDS011;22233;42.708;23.360;2023-04-15T02:15:16;6.57;;;3.45;;
36191;SDS011;22233;42.708;23.360;2023-04-15T02:17:42;7.10;;;3.90;;
36191;SDS011;22233;42.708;23.360;2023-04-15T02:20:10;6.70;;;3.72;;
36191;SDS011;22233;42.708;23.360;2023-04-15T02:22:36;7.35;;;3.55;;
36191;SDS011;22233;42.708;23.360;2023-04-15T02:25:01;6.22;;;3.45;;
36191;SDS011;22233;42.708;23.360;2023-04-15T02:27:27;5.55;;;3.60;;
36191;SDS011;22233;42.708;23.360;2023-04-15T02:29:53;4.55;;;3.42;;
36191;SDS011;22233;42.708;23.360;2023-04-15T02:32:18;5.88;;;4.18;;
36191;SDS011;22233;42.708;23.360;2023-04-15T02:34:44;5.45;;;3.78;;
36191;SDS011;22233;42.708;23.360;2023-04-15T02:37:11;7.80;;;4.05;;
36191;SDS011;22233;42.708;23.360;2023-04-15T02:39:37;5.63;;;3.77;;
36191;SDS011;22233;42.708;23.360;2023-04-15T02:42:03;5.28;;;3.60;;
36191;SDS011;22233;42.708;23.360;2023-04-15T02:44:30;5.50;;;3.38;;
36191;SDS011;22233;42.708;23.360;2023-04-15T02:46:56;6.65;;;3.70;;
36191;SDS011;22233;42.708;23.360;2023-04-15T02:49:22;6.32;;;3.72;;
36191;SDS011;22233;42.708;23.360;2023-04-15T02:51:49;5.65;;;3.42;;
36191;SDS011;22233;42.708;23.360;2023-04-15T02:54:18;5.18;;;3.47;;
36191;SDS011;22233;42.708;23.360;2023-04-15T02:56:46;6.97;;;3.58;;
36191;SDS011;22233;42.708;23.360;2023-04-15T02:59:12;4.05;;;2.65;;
36191;SDS011;22233;42.708;23.360;2023-04-15T03:01:37;4.15;;;2.47;;
36191;SDS011;22233;42.708;23.360;2023-04-15T03:04:03;5.05;;;2.70;;
36191;SDS011;22233;42.708;23.360;2023-04-15T03:06:28;4.15;;;2.35;;
36191;SDS011;22233;42.708;23.360;2023-04-15T03:08:54;5.18;;;2.85;;
36191;SDS011;22233;42.708;23.360;2023-04-15T03:11:21;5.57;;;2.90;;
36191;SDS011;22233;42.708;23.360;2023-04-15T03:13:46;4.50;;;3.25;;
36191;SDS011;22233;42.708;23.360;2023-04-15T03:16:12;5.30;;;3.00;;
36191;SDS011;22233;42.708;23.360;2023-04-15T03:18:37;7.07;;;2.88;;
36191;SDS011;22233;42.708;23.360;2023-04-15T03:21:03;4.43;;;2.63;;
36191;SDS011;22233;42.708;23.360;2023-04-15T03:23:29;5.57;;;2.78;;
36191;SDS011;22233;42.708;23.360;2023-04-15T03:25:55;9.23;;;3.33;;
36191;SDS011;22233;42.708;23.360;2023-04-15T03:28:22;5.47;;;3.13;;
36191;SDS011;22233;42.708;23.360;2023-04-15T03:30:48;9.13;;;3.55;;
36191;SDS011;22233;42.708;23.360;2023-04-15T03:33:13;5.65;;;3.15;;
36191;SDS011;22233;42.708;23.360;2023-04-15T03:35:38;5.13;;;3.15;;
36191;SDS011;22233;42.708;23.360;2023-04-15T03:38:04;7.03;;;2.88;;
36191;SDS011;22233;42.708;23.360;2023-04-15T03:40:29;3.45;;;2.53;;
36191;SDS011;22233;42.708;23.360;2023-04-15T03:42:55;5.35;;;2.60;;
36191;SDS011;22233;42.708;23.360;2023-04-15T03:45:20;3.70;;;2.60;;
36191;SDS011;22233;42.708;23.360;2023-04-15T03:47:46;4.70;;;2.28;;
36191;SDS011;22233;42.708;23.360;2023-04-15T03:50:11;3.72;;;2.80;;
36191;SDS011;22233;42.708;23.360;2023-04-15T03:52:37;4.03;;;2.45;;
36191;SDS011;22233;42.708;23.360;2023-04-15T03:55:02;5.03;;;2.53;;
36191;SDS011;22233;42.708;23.360;2023-04-15T03:57:28;5.30;;;2.38;;
36191;SDS011;22233;42.708;23.360;2023-04-15T03:59:53;3.15;;;2.33;;
36191;SDS011;22233;42.708;23.360;2023-04-15T04:02:19;3.67;;;2.28;;
36191;SDS011;22233;42.708;23.360;2023-04-15T04:04:44;5.00;;;2.75;;
36191;SDS011;22233;42.708;23.360;2023-04-15T04:07:16;4.10;;;2.38;;
36191;SDS011;22233;42.708;23.360;2023-04-15T04:09:42;3.03;;;2.25;;
36191;SDS011;22233;42.708;23.360;2023-04-15T04:12:08;5.63;;;2.55;;
36191;SDS011;22233;42.708;23.360;2023-04-15T04:14:33;3.90;;;2.50;;
36191;SDS011;22233;42.708;23.360;2023-04-15T04:16:58;7.80;;;2.67;;
36191;SDS011;22233;42.708;23.360;2023-04-15T04:19:24;4.47;;;2.63;;
36191;SDS011;22233;42.708;23.360;2023-04-15T04:21:50;4.57;;;2.95;;
36191;SDS011;22233;42.708;23.360;2023-04-15T04:24:16;4.88;;;3.30;;
36191;SDS011;22233;42.708;23.360;2023-04-15T04:26:41;5.72;;;3.25;;
36191;SDS011;22233;42.708;23.360;2023-04-15T04:29:06;4.97;;;3.47;;
36191;SDS011;22233;42.708;23.360;2023-04-15T04:31:32;7.18;;;3.10;;
36191;SDS011;22233;42.708;23.360;2023-04-15T04:33:57;7.80;;;3.50;;
36191;SDS011;22233;42.708;23.360;2023-04-15T04:36:23;7.55;;;4.07;;
36191;SDS011;22233;42.708;23.360;2023-04-15T04:38:48;6.55;;;4.07;;
36191;SDS011;22233;42.708;23.360;2023-04-15T04:41:14;7.53;;;4.28;;
36191;SDS011;22233;42.708;23.360;2023-04-15T04:43:39;5.57;;;4.10;;
36191;SDS011;22233;42.708;23.360;2023-04-15T04:46:05;10.82;;;6.30;;
36191;SDS011;22233;42.708;23.360;2023-04-15T04:48:30;10.20;;;6.47;;
36191;SDS011;22233;42.708;23.360;2023-04-15T04:50:55;11.45;;;7.10;;
36191;SDS011;22233;42.708;23.360;2023-04-15T04:53:21;13.70;;;6.85;;
36191;SDS011;22233;42.708;23.360;2023-04-15T04:55:46;9.50;;;5.72;;
36191;SDS011;22233;42.708;23.360;2023-04-15T04:58:12;9.65;;;5.85;;
36191;SDS011;22233;42.708;23.360;2023-04-15T05:00:38;7.63;;;6.00;;
36191;SDS011;22233;42.708;23.360;2023-04-15T05:03:04;11.15;;;6.57;;
36191;SDS011;22233;42.708;23.360;2023-04-15T05:05:30;11.98;;;6.88;;
36191;SDS011;22233;42.708;23.360;2023-04-15T05:07:55;12.82;;;6.68;;
36191;SDS011;22233;42.708;23.360;2023-04-15T05:10:20;9.52;;;6.68;;
36191;SDS011;22233;42.708;23.360;2023-04-15T05:12:46;11.75;;;6.22;;
36191;SDS011;22233;42.708;23.360;2023-04-15T05:15:11;12.55;;;5.78;;
36191;SDS011;22233;42.708;23.360;2023-04-15T05:17:37;9.80;;;6.68;;
36191;SDS011;22233;42.708;23.360;2023-04-15T05:20:02;8.70;;;5.75;;
36191;SDS011;22233;42.708;23.360;2023-04-15T05:22:28;11.43;;;5.45;;
36191;SDS011;22233;42.708;23.360;2023-04-15T05:24:53;9.73;;;6.10;;
36191;SDS011;22233;42.708;23.360;2023-04-15T05:27:19;6.05;;;4.57;;
36191;SDS011;22233;42.708;23.360;2023-04-15T05:29:46;11.05;;;5.30;;
36191;SDS011;22233;42.708;23.360;2023-04-15T05:32:12;11.30;;;5.47;;
36191;SDS011;22233;42.708;23.360;2023-04-15T05:34:37;10.95;;;5.25;;
36191;SDS011;22233;42.708;23.360;2023-04-15T05:37:02;9.10;;;4.03;;
36191;SDS011;22233;42.708;23.360;2023-04-15T05:39:28;6.50;;;4.13;;
36191;SDS011;22233;42.708;23.360;2023-04-15T05:41:53;6.38;;;4.03;;
36191;SDS011;22233;42.708;23.360;2023-04-15T05:44:19;7.20;;;4.32;;
36191;SDS011;22233;42.708;23.360;2023-04-15T05:46:44;7.97;;;4.55;;
36191;SDS011;22233;42.708;23.360;2023-04-15T05:49:10;8.23;;;3.70;;
36191;SDS011;22233;42.708;23.360;2023-04-15T05:51:36;7.28;;;3.00;;
36191;SDS011;22233;42.708;23.360;2023-04-15T05:54:01;4.97;;;2.42;;
36191;SDS011;22233;42.708;23.360;2023-04-15T05:56:26;4.15;;;3.10;;
36191;SDS011;22233;42.708;23.360;2023-04-15T05:58:52;5.38;;;2.60;;
36191;SDS011;22233;42.708;23.360;2023-04-15T06:01:17;4.50;;;2.63;;
36191;SDS011;22233;42.708;23.360;2023-04-15T06:03:43;3.47;;;2.42;;
36191;SDS011;22233;42.708;23.360;2023-04-15T06:06:08;5.45;;;3.20;;
36191;SDS011;22233;42.708;23.360;2023-04-15T06:08:34;10.02;;;4.40;;
36191;SDS011;22233;42.708;23.360;2023-04-15T06:10:59;10.10;;;4.95;;
36191;SDS011;22233;42.708;23.360;2023-04-15T06:13:25;7.63;;;5.40;;
36191;SDS011;22233;42.708;23.360;2023-04-15T06:15:51;7.60;;;4.93;;
36191;SDS011;22233;42.708;23.360;2023-04-15T06:18:17;10.20;;;4.68;;
36191;SDS011;22233;42.708;23.360;2023-04-15T06:20:43;6.07;;;4.88;;
36191;SDS011;22233;42.708;23.360;2023-04-15T06:23:08;7.32;;;4.53;;
36191;SDS011;22233;42.708;23.360;2023-04-15T06:25:33;9.27;;;3.83;;
36191;SDS011;22233;42.708;23.360;2023-04-15T06:27:59;7.72;;;3.92;;
36191;SDS011;22233;42.708;23.360;2023-04-15T06:30:24;5.15;;;3.60;;
36191;SDS011;22233;42.708;23.360;2023-04-15T06:32:50;7.57;;;3.10;;
36191;SDS011;22233;42.708;23.360;2023-04-15T06:35:15;5.30;;;3.28;;
36191;SDS011;22233;42.708;23.360;2023-04-15T06:37:41;5.68;;;3.35;;
36191;SDS011;22233;42.708;23.360;2023-04-15T06:40:06;4.40;;;3.13;;
36191;SDS011;22233;42.708;23.360;2023-04-15T06:42:34;4.75;;;2.35;;
36191;SDS011;22233;42.708;23.360;2023-04-15T06:45:00;5.50;;;2.80;;
36191;SDS011;22233;42.708;23.360;2023-04-15T06:47:26;7.05;;;3.03;;
36191;SDS011;22233;42.708;23.360;2023-04-15T06:49:51;5.68;;;2.35;;
36191;SDS011;22233;42.708;23.360;2023-04-15T06:52:17;5.45;;;2.47;;
36191;SDS011;22233;42.708;23.360;2023-04-15T06:54:42;3.83;;;2.30;;
36191;SDS011;22233;42.708;23.360;2023-04-15T06:57:08;8.13;;;2.72;;
36191;SDS011;22233;42.708;23.360;2023-04-15T06:59:33;3.58;;;2.25;;
36191;SDS011;22233;42.708;23.360;2023-04-15T07:01:59;4.45;;;2.90;;
36191;SDS011;22233;42.708;23.360;2023-04-15T07:04:25;5.25;;;3.47;;
36191;SDS011;22233;42.708;23.360;2023-04-15T07:06:51;3.05;;;1.70;;
36191;SDS011;22233;42.708;23.360;2023-04-15T07:09:18;5.47;;;2.53;;
36191;SDS011;22233;42.708;23.360;2023-04-15T07:11:43;3.85;;;2.00;;
36191;SDS011;22233;42.708;23.360;2023-04-15T07:14:09;5.97;;;1.92;;
36191;SDS011;22233;42.708;23.360;2023-04-15T07:16:35;2.58;;;1.83;;
36191;SDS011;22233;42.708;23.360;2023-04-15T07:19:00;4.65;;;2.40;;
36191;SDS011;22233;42.708;23.360;2023-04-15T07:21:26;2.72;;;1.75;;
36191;SDS011;22233;42.708;23.360;2023-04-15T07:23:51;3.95;;;2.20;;
36191;SDS011;22233;42.708;23.360;2023-04-15T07:26:17;2.97;;;1.95;;
36191;SDS011;22233;42.708;23.360;2023-04-15T07:28:42;4.25;;;2.35;;
36191;SDS011;22233;42.708;23.360;2023-04-15T07:31:08;3.67;;;1.95;;
36191;SDS011;22233;42.708;23.360;2023-04-15T07:33:33;4.55;;;2.50;;
36191;SDS011;22233;42.708;23.360;2023-04-15T07:36:00;5.05;;;2.92;;
36191;SDS011;22233;42.708;23.360;2023-04-15T07:38:25;4.22;;;2.35;;
36191;SDS011;22233;42.708;23.360;2023-04-15T07:40:51;5.15;;;2.80;;
36191;SDS011;22233;42.708;23.360;2023-04-15T07:43:16;4.35;;;2.25;;
36191;SDS011;22233;42.708;23.360;2023-04-15T07:45:42;4.68;;;2.53;;
36191;SDS011;22233;42.708;23.360;2023-04-15T07:48:08;4.80;;;2.50;;
36191;SDS011;22233;42.708;23.360;2023-04-15T07:50:33;4.95;;;2.88;;
36191;SDS011;22233;42.708;23.360;2023-04-15T07:52:59;7.65;;;3.33;;
36191;SDS011;22233;42.708;23.360;2023-04-15T07:55:24;7.35;;;3.17;;
36191;SDS011;22233;42.708;23.360;2023-04-15T07:57:50;4.47;;;2.50;;
36191;SDS011;22233;42.708;23.360;2023-04-15T08:00:15;5.68;;;2.55;;
36191;SDS011;22233;42.708;23.360;2023-04-15T08:02:41;7.53;;;2.40;;
36191;SDS011;22233;42.708;23.360;2023-04-15T08:05:07;5.35;;;2.88;;
36191;SDS011;22233;42.708;23.360;2023-04-15T08:07:35;6.70;;;2.78;;
36191;SDS011;22233;42.708;23.360;2023-04-15T08:10:01;5.40;;;3.00;;
36191;SDS011;22233;42.708;23.360;2023-04-15T08:12:27;5.22;;;3.05;;
36191;SDS011;22233;42.708;23.360;2023-04-15T08:14:53;4.65;;;2.55;;
36191;SDS011;22233;42.708;23.360;2023-04-15T08:17:20;6.35;;;2.75;;
36191;SDS011;22233;42.708;23.360;2023-04-15T08:19:46;5.93;;;2.60;;
36191;SDS011;22233;42.708;23.360;2023-04-15T08:22:12;6.85;;;2.70;;
36191;SDS011;22233;42.708;23.360;2023-04-15T08:24:38;4.80;;;2.55;;
36191;SDS011;22233;42.708;23.360;2023-04-15T08:27:03;2.90;;;2.10;;
36191;SDS011;22233;42.708;23.360;2023-04-15T08:29:30;5.57;;;2.72;;
36191;SDS011;22233;42.708;23.360;2023-04-15T08:31:56;5.47;;;2.05;;
36191;SDS011;22233;42.708;23.360;2023-04-15T08:34:22;5.20;;;2.28;;
36191;SDS011;22233;42.708;23.360;2023-04-15T08:36:48;5.05;;;2.13;;
36191;SDS011;22233;42.708;23.360;2023-04-15T08:39:13;6.10;;;2.13;;
36191;SDS011;22233;42.708;23.360;2023-04-15T08:41:39;5.25;;;2.10;;
36191;SDS011;22233;42.708;23.360;2023-04-15T08:44:11;2.88;;;1.75;;
36191;SDS011;22233;42.708;23.360;2023-04-15T08:46:38;4.18;;;2.10;;
36191;SDS011;22233;42.708;23.360;2023-04-15T08:49:06;3.50;;;1.52;;
36191;SDS011;22233;42.708;23.360;2023-04-15T08:51:34;6.30;;;1.75;;
36191;SDS011;22233;42.708;23.360;2023-04-15T08:54:00;3.53;;;2.03;;
36191;SDS011;22233;42.708;23.360;2023-04-15T08:56:26;3.55;;;1.60;;
36191;SDS011;22233;42.708;23.360;2023-04-15T08:58:55;2.05;;;1.20;;
36191;SDS011;22233;42.708;23.360;2023-04-15T09:01:21;5.97;;;1.58;;
36191;SDS011;22233;42.708;23.360;2023-04-15T09:03:47;3.92;;;1.38;;
36191;SDS011;22233;42.708;23.360;2023-04-15T09:06:14;1.73;;;1.38;;
36191;SDS011;22233;42.708;23.360;2023-04-15T09:08:41;2.05;;;1.13;;
36191;SDS011;22233;42.708;23.360;2023-04-15T09:11:06;2.55;;;1.33;;
36191;SDS011;22233;42.708;23.360;2023-04-15T09:13:32;3.78;;;1.50;;
36191;SDS011;22233;42.708;23.360;2023-04-15T09:15:57;1.77;;;1.10;;
36191;SDS011;22233;42.708;23.360;2023-04-15T09:18:31;2.75;;;1.20;;
36191;SDS011;22233;42.708;23.360;2023-04-15T09:21:07;3.45;;;1.20;;
36191;SDS011;22233;42.708;23.360;2023-04-15T09:23:35;3.22;;;1.45;;
36191;SDS011;22233;42.708;23.360;2023-04-15T09:26:02;1.83;;;0.90;;
36191;SDS011;22233;42.708;23.360;2023-04-15T09:28:29;3.83;;;1.02;;
36191;SDS011;22233;42.708;23.360;2023-04-15T09:30:58;2.55;;;1.00;;
36191;SDS011;22233;42.708;23.360;2023-04-15T09:33:25;1.40;;;1.05;;
36191;SDS011;22233;42.708;23.360;2023-04-15T09:36:04;1.90;;;1.20;;
36191;SDS011;22233;42.708;23.360;2023-04-15T09:38:31;2.63;;;1.17;;
36191;SDS011;22233;42.708;23.360;2023-04-15T09:40:56;2.88;;;1.00;;
36191;SDS011;22233;42.708;23.360;2023-04-15T09:43:35;2.03;;;0.75;;
36191;SDS011;22233;42.708;23.360;2023-04-15T09:46:04;1.60;;;0.90;;
36191;SDS011;22233;42.708;23.360;2023-04-15T09:48:30;2.33;;;0.90;;
36191;SDS011;22233;42.708;23.360;2023-04-15T09:50:58;1.08;;;0.77;;
36191;SDS011;22233;42.708;23.360;2023-04-15T09:53:25;2.05;;;0.80;;
36191;SDS011;22233;42.708;23.360;2023-04-15T09:55:52;2.95;;;0.90;;
36191;SDS011;22233;42.708;23.360;2023-04-15T09:58:29;1.65;;;0.90;;
36191;SDS011;22233;42.708;23.360;2023-04-15T10:00:56;1.83;;;1.08;;
36191;SDS011;22233;42.708;23.360;2023-04-15T10:03:23;1.33;;;0.85;;
36191;SDS011;22233;42.708;23.360;2023-04-15T10:05:52;1.77;;;0.77;;
36191;SDS011;22233;42.708;23.360;2023-04-15T10:08:20;1.20;;;0.88;;
36191;SDS011;22233;42.708;23.360;2023-04-15T10:10:48;1.83;;;0.77;;
36191;SDS011;22233;42.708;23.360;2023-04-15T10:13:15;3.00;;;0.82;;
36191;SDS011;22233;42.708;23.360;2023-04-15T10:15:56;1.42;;;0.80;;
36191;SDS011;22233;42.708;23.360;2023-04-15T10:18:22;1.40;;;0.90;;
36191;SDS011;22233;42.708;23.360;2023-04-15T10:20:50;1.85;;;0.80;;
36191;SDS011;22233;42.708;23.360;2023-04-15T10:23:17;3.03;;;1.02;;
36191;SDS011;22233;42.708;23.360;2023-04-15T10:25:44;1.48;;;0.70;;
36191;SDS011;22233;42.708;23.360;2023-04-15T10:28:10;1.83;;;0.90;;
36191;SDS011;22233;42.708;23.360;2023-04-15T10:30:36;2.95;;;0.90;;
36191;SDS011;22233;42.708;23.360;2023-04-15T10:33:02;1.15;;;0.65;;
36191;SDS011;22233;42.708;23.360;2023-04-15T10:35:29;1.60;;;0.85;;
36191;SDS011;22233;42.708;23.360;2023-04-15T10:37:56;4.85;;;0.85;;
36191;SDS011;22233;42.708;23.360;2023-04-15T10:42:59;2.10;;;0.70;;
36191;SDS011;22233;42.708;23.360;2023-04-15T10:45:26;3.05;;;0.90;;
36191;SDS011;22233;42.708;23.360;2023-04-15T10:47:56;2.20;;;0.90;;
36191;SDS011;22233;42.708;23.360;2023-04-15T10:50:24;1.30;;;0.63;;
36191;SDS011;22233;42.708;23.360;2023-04-15T10:52:50;1.27;;;0.55;;
36191;SDS011;22233;42.708;23.360;2023-04-15T10:55:35;3.38;;;0.80;;
36191;SDS011;22233;42.708;23.360;2023-04-15T10:58:00;1.77;;;0.60;;
36191;SDS011;22233;42.708;23.360;2023-04-15T11:00:30;2.33;;;0.77;;
36191;SDS011;22233;42.708;23.360;2023-04-15T11:08:10;1.58;;;0.60;;
36191;SDS011;22233;42.708;23.360;2023-04-15T11:13:03;1.40;;;0.73;;
36191;SDS011;22233;42.708;23.360;2023-04-15T11:15:32;2.17;;;0.70;;
36191;SDS011;22233;42.708;23.360;2023-04-15T11:23:01;2.03;;;0.75;;
36191;SDS011;22233;42.708;23.360;2023-04-15T11:25:29;1.48;;;0.73;;
36191;SDS011;22233;42.708;23.360;2023-04-15T11:30:23;1.92;;;0.60;;
36191;SDS011;22233;42.708;23.360;2023-04-15T11:32:50;2.58;;;0.70;;
36191;SDS011;22233;42.708;23.360;2023-04-15T11:35:18;1.17;;;1.02;;
36191;SDS011;22233;42.708;23.360;2023-04-15T11:37:44;1.73;;;0.63;;
36191;SDS011;22233;42.708;23.360;2023-04-15T11:40:11;1.88;;;0.50;;
36191;SDS011;22233;42.708;23.360;2023-04-15T11:42:37;1.63;;;0.60;;
36191;SDS011;22233;42.708;23.360;2023-04-15T11:45:07;2.42;;;0.70;;
36191;SDS011;22233;42.708;23.360;2023-04-15T11:47:34;2.95;;;0.60;;
36191;SDS011;22233;42.708;23.360;2023-04-15T11:53:04;0.75;;;0.55;;
36191;SDS011;22233;42.708;23.360;2023-04-15T11:55:40;1.38;;;0.70;;
36191;SDS011;22233;42.708;23.360;2023-04-15T12:06:03;0.88;;;0.50;;
36191;SDS011;22233;42.708;23.360;2023-04-15T12:11:20;1.52;;;0.60;;
36191;SDS011;22233;42.708;23.360;2023-04-15T12:14:10;0.80;;;0.52;;
36191;SDS011;22233;42.708;23.360;2023-04-15T12:16:46;1.92;;;0.57;;
36191;SDS011;22233;42.708;23.360;2023-04-15T12:19:14;1.10;;;0.60;;
36191;SDS011;22233;42.708;23.360;2023-04-15T12:21:43;0.90;;;0.60;;
36191;SDS011;22233;42.708;23.360;2023-04-15T12:24:10;2.35;;;0.90;;
36191;SDS011;22233;42.708;23.360;2023-04-15T12:29:09;1.55;;;0.40;;
36191;SDS011;22233;42.708;23.360;2023-04-15T12:31:36;2.80;;;0.67;;
36191;SDS011;22233;42.708;23.360;2023-04-15T12:34:10;1.52;;;0.57;;
36191;SDS011;22233;42.708;23.360;2023-04-15T12:36:36;1.08;;;0.45;;
36191;SDS011;22233;42.708;23.360;2023-04-15T12:39:04;1.67;;;0.32;;
36191;SDS011;22233;42.708;23.360;2023-04-15T12:41:32;1.55;;;0.50;;
36191;SDS011;22233;42.708;23.360;2023-04-15T12:43:58;0.98;;;0.50;;
36191;SDS011;22233;42.708;23.360;2023-04-15T12:46:24;1.63;;;0.60;;
36191;SDS011;22233;42.708;23.360;2023-04-15T12:48:51;1.97;;;0.70;;
36191;SDS011;22233;42.708;23.360;2023-04-15T12:51:17;1.23;;;0.30;;
36191;SDS011;22233;42.708;23.360;2023-04-15T12:53:43;1.70;;;0.82;;
36191;SDS011;22233;42.708;23.360;2023-04-15T12:56:08;0.70;;;0.30;;
36191;SDS011;22233;42.708;23.360;2023-04-15T12:58:34;2.30;;;0.70;;
36191;SDS011;22233;42.708;23.360;2023-04-15T13:01:00;1.77;;;0.50;;
36191;SDS011;22233;42.708;23.360;2023-04-15T13:03:25;1.70;;;0.52;;
36191;SDS011;22233;42.708;23.360;2023-04-15T13:05:51;0.38;;;0.20;;
36191;SDS011;22233;42.708;23.360;2023-04-15T13:08:16;1.50;;;0.55;;
36191;SDS011;22233;42.708;23.360;2023-04-15T13:10:42;0.40;;;0.40;;
36191;SDS011;22233;42.708;23.360;2023-04-15T13:13:08;0.75;;;0.40;;
36191;SDS011;22233;42.708;23.360;2023-04-15T13:15:33;1.90;;;0.40;;
36191;SDS011;22233;42.708;23.360;2023-04-15T13:17:59;1.40;;;0.40;;
36191;SDS011;22233;42.708;23.360;2023-04-15T13:20:25;3.33;;;0.60;;
36191;SDS011;22233;42.708;23.360;2023-04-15T13:22:51;0.80;;;0.50;;
36191;SDS011;22233;42.708;23.360;2023-04-15T13:25:17;1.38;;;0.25;;
36191;SDS011;22233;42.708;23.360;2023-04-15T13:27:42;1.40;;;0.28;;
36191;SDS011;22233;42.708;23.360;2023-04-15T13:30:08;1.02;;;0.30;;
36191;SDS011;22233;42.708;23.360;2023-04-15T13:32:33;3.80;;;0.30;;
36191;SDS011;22233;42.708;23.360;2023-04-15T13:34:59;0.35;;;0.25;;
36191;SDS011;22233;42.708;23.360;2023-04-15T13:37:28;0.45;;;0.25;;
36191;SDS011;22233;42.708;23.360;2023-04-15T13:39:54;2.92;;;0.55;;
36191;SDS011;22233;42.708;23.360;2023-04-15T13:42:20;1.77;;;0.60;;
36191;SDS011;22233;42.708;23.360;2023-04-15T13:44:49;1.33;;;0.50;;
36191;SDS011;22233;42.708;23.360;2023-04-15T13:47:18;1.30;;;0.30;;
36191;SDS011;22233;42.708;23.360;2023-04-15T13:49:44;0.80;;;0.40;;
36191;SDS011;22233;42.708;23.360;2023-04-15T13:52:10;0.85;;;0.50;;
36191;SDS011;22233;42.708;23.360;2023-04-15T13:54:36;1.63;;;0.40;;
36191;SDS011;22233;42.708;23.360;2023-04-15T13:57:01;1.15;;;0.40;;
36191;SDS011;22233;42.708;23.360;2023-04-15T13:59:27;1.42;;;0.60;;
36191;SDS011;22233;42.708;23.360;2023-04-15T14:01:52;1.30;;;0.40;;
36191;SDS011;22233;42.708;23.360;2023-04-15T14:04:17;2.00;;;0.60;;
36191;SDS011;22233;42.708;23.360;2023-04-15T14:06:43;1.35;;;0.73;;
36191;SDS011;22233;42.708;23.360;2023-04-15T14:09:09;0.47;;;0.20;;
36191;SDS011;22233;42.708;23.360;2023-04-15T14:11:34;1.40;;;0.20;;
36191;SDS011;22233;42.708;23.360;2023-04-15T14:14:02;1.15;;;0.30;;
36191;SDS011;22233;42.708;23.360;2023-04-15T14:16:28;1.65;;;0.30;;
36191;SDS011;22233;42.708;23.360;2023-04-15T14:18:53;0.60;;;0.20;;
36191;SDS011;22233;42.708;23.360;2023-04-15T14:21:18;3.10;;;0.68;;
36191;SDS011;22233;42.708;23.360;2023-04-15T14:23:44;1.02;;;0.40;;
36191;SDS011;22233;42.708;23.360;2023-04-15T14:26:10;1.15;;;0.38;;
36191;SDS011;22233;42.708;23.360;2023-04-15T14:28:35;1.15;;;0.20;;
36191;SDS011;22233;42.708;23.360;2023-04-15T14:31:03;1.40;;;0.45;;
36191;SDS011;22233;42.708;23.360;2023-04-15T14:33:28;0.80;;;0.40;;
36191;SDS011;22233;42.708;23.360;2023-04-15T14:35:53;1.77;;;0.55;;
36191;SDS011;22233;42.708;23.360;2023-04-15T14:38:19;1.50;;;0.40;;
36191;SDS011;22233;42.708;23.360;2023-04-15T14:40:46;1.15;;;0.50;;
36191;SDS011;22233;42.708;23.360;2023-04-15T14:43:12;1.73;;;0.52;;
36191;SDS011;22233;42.708;23.360;2023-04-15T14:45:37;1.17;;;0.50;;
36191;SDS011;22233;42.708;23.360;2023-04-15T14:48:03;0.88;;;0.40;;
36191;SDS011;22233;42.708;23.360;2023-04-15T14:50:30;3.85;;;0.63;;
36191;SDS011;22233;42.708;23.360;2023-04-15T14:52:55;2.05;;;0.50;;
36191;SDS011;22233;42.708;23.360;2023-04-15T14:55:21;1.98;;;0.65;;
36191;SDS011;22233;42.708;23.360;2023-04-15T14:57:46;1.70;;;0.50;;
36191;SDS011;22233;42.708;23.360;2023-04-15T15:00:12;1.33;;;0.52;;
36191;SDS011;22233;42.708;23.360;2023-04-15T15:02:38;1.02;;;0.50;;